createdAt,value
2023-02-24T00:00:23.216Z,26.5
2023-02-24T00:01:22.455Z,28.10
2023-02-24T00:02:22.629Z,28.89
2023-02-24T00:03:21.854Z,28.29
2023-02-24T00:04:21.401Z,28
2023-02-24T00:05:21.724Z,26.60
2023-02-24T00:06:21.769Z,27.70
2023-02-24T00:07:22.338Z,29.10
2023-02-24T00:08:21.584Z,27
2023-02-24T00:09:21.855Z,27.20
2023-02-24T00:10:22.322Z,27.29
2023-02-24T00:11:22.054Z,26.29
2023-02-24T00:12:22.305Z,28.20
2023-02-24T00:13:22.106Z,28.10
2023-02-24T00:15:21.900Z,28.39
2023-02-24T00:16:21.988Z,28
2023-02-24T00:17:22.177Z,26.79
2023-02-24T00:18:22.179Z,30.20
2023-02-24T00:19:21.824Z,29.10
2023-02-24T00:20:22.479Z,27.79
2023-02-24T00:21:22.472Z,26.10
2023-02-24T00:22:22.137Z,29.29
2023-02-24T00:23:21.964Z,28.29
2023-02-24T00:24:21.640Z,26.39
2023-02-24T00:25:21.636Z,28
2023-02-24T00:26:21.893Z,28.39
2023-02-24T00:27:21.965Z,27.70
2023-02-24T00:28:21.807Z,26.79
2023-02-24T00:29:22.115Z,27.5
2023-02-24T00:30:23.732Z,30.79
2023-02-24T00:31:22.125Z,27
2023-02-24T00:32:22.214Z,27.79
2023-02-24T00:33:22.142Z,26
2023-02-24T00:34:22.714Z,28
2023-02-24T00:35:21.916Z,28.39
2023-02-24T00:36:21.877Z,27.10
2023-02-24T00:37:21.353Z,27.29
2023-02-24T00:38:22.098Z,26
2023-02-24T00:39:21.732Z,27
2023-02-24T00:41:22.474Z,27.79
2023-02-24T00:42:21.779Z,25.39
2023-02-24T00:43:22.280Z,26.20
2023-02-24T00:44:21.775Z,27.20
2023-02-24T00:45:22.138Z,27.70
2023-02-24T00:46:22.164Z,28.5
2023-02-24T00:47:21.550Z,28.29
2023-02-24T00:48:21.912Z,27.89
2023-02-24T00:49:21.252Z,29.20
2023-02-24T00:50:22.050Z,28.79
2023-02-24T00:51:22.080Z,27.60
2023-02-24T00:53:21.392Z,27.29
2023-02-24T00:54:22.284Z,29.89
2023-02-24T00:55:21.683Z,28.79
2023-02-24T00:56:21.542Z,27.5
2023-02-24T00:57:22.016Z,27.20
2023-02-24T00:58:21.097Z,26.89
2023-02-24T00:59:21.509Z,29.20
2023-02-24T01:00:22.851Z,27.79
2023-02-24T01:01:25.522Z,27
2023-02-24T01:02:22.007Z,25.60
2023-02-24T01:03:21.807Z,26.79
2023-02-24T01:04:21.514Z,26.89
2023-02-24T01:05:22.018Z,27.89
2023-02-24T01:06:21.556Z,28.29
2023-02-24T01:07:21.716Z,28.70
2023-02-24T01:08:21.126Z,28
2023-02-24T01:09:21.303Z,28.29
2023-02-24T01:10:22.057Z,28.79
2023-02-24T01:11:21.558Z,29.79
2023-02-24T01:12:22.183Z,30.39
2023-02-24T01:13:21.741Z,27.60
2023-02-24T01:14:21.709Z,28.29
2023-02-24T01:15:22.063Z,27.5
2023-02-24T01:16:22.221Z,25.89
2023-02-24T01:17:21.292Z,26.79
2023-02-24T01:18:21.251Z,25.89
2023-02-24T01:19:22.092Z,25.20
2023-02-24T01:20:22.462Z,25.5
2023-02-24T01:21:22.598Z,27.29
2023-02-24T01:22:21.533Z,25.10
2023-02-24T01:23:22.224Z,26.70
2023-02-24T01:24:22.306Z,26.89
2023-02-24T01:25:21.418Z,25
2023-02-24T01:26:22.233Z,24.20
2023-02-24T01:27:22.180Z,25.60
2023-02-24T01:28:21.753Z,24.70
2023-02-24T01:29:21.369Z,27.10
2023-02-24T01:30:21.978Z,24.10
2023-02-24T01:31:21.951Z,26.20
2023-02-24T01:32:22.502Z,26.10
2023-02-24T01:33:22.034Z,24.79
2023-02-24T01:34:21.615Z,23.70
2023-02-24T01:35:21.590Z,23.10
2023-02-24T01:36:22.938Z,24.29
2023-02-24T01:37:21.383Z,23.60
2023-02-24T01:38:21.315Z,21.20
2023-02-24T01:39:21.433Z,25.39
2023-02-24T01:40:22.095Z,22.10
2023-02-24T01:41:21.909Z,20.70
2023-02-24T01:42:21.783Z,19.29
2023-02-24T01:43:22.176Z,18.79
2023-02-24T01:44:21.965Z,19.10
2023-02-24T01:45:21.592Z,18.89
2023-02-24T01:46:21.849Z,16.79
2023-02-24T01:47:21.593Z,15.19
2023-02-24T01:48:21.442Z,15.80
2023-02-24T01:49:21.491Z,15.10
2023-02-24T01:50:21.988Z,14.60
2023-02-24T01:51:21.653Z,17.29
2023-02-24T01:52:21.601Z,14.69
2023-02-24T01:53:21.456Z,14.89
2023-02-24T01:54:21.803Z,15.39
2023-02-24T01:55:22.214Z,14.60
2023-02-24T01:56:21.256Z,14
2023-02-24T01:57:21.688Z,14.30
2023-02-24T01:58:21.441Z,14.5
2023-02-24T01:59:21.624Z,13.69
2023-02-24T02:00:22.595Z,16.29
2023-02-24T02:02:21.731Z,14.69
2023-02-24T02:04:21.664Z,15.39
2023-02-24T02:05:22.326Z,20.39
2023-02-24T02:06:21.952Z,19.39
2023-02-24T02:07:22.093Z,16.79
2023-02-24T02:08:22.151Z,18.5
2023-02-24T02:09:22.030Z,17.89
2023-02-24T02:10:22.018Z,19.89
2023-02-24T02:11:21.909Z,20.70
2023-02-24T02:13:21.922Z,21.89
2023-02-24T02:14:21.754Z,21.79
2023-02-24T02:15:22.174Z,23.20
2023-02-24T02:16:21.805Z,25.39
2023-02-24T02:17:21.408Z,25.79
2023-02-24T02:18:21.845Z,25.60
2023-02-24T02:19:21.773Z,26
2023-02-24T02:20:22.320Z,26.5
2023-02-24T02:21:21.940Z,29.60
2023-02-24T02:22:21.958Z,30.79
2023-02-24T02:23:21.790Z,28.5
2023-02-24T02:24:22.303Z,31.29
2023-02-24T02:25:21.504Z,31.70
2023-02-24T02:26:21.736Z,35.70
2023-02-24T02:27:22.172Z,38.59
2023-02-24T02:28:22.360Z,42.09
2023-02-24T02:29:21.545Z,47.40
2023-02-24T02:30:22.197Z,49.59
2023-02-24T02:31:22.103Z,56.40
2023-02-24T02:32:21.847Z,60.90
2023-02-24T02:33:21.187Z,63.09
2023-02-24T02:34:21.275Z,76.09
2023-02-24T02:35:22.263Z,79.69
2023-02-24T02:36:21.547Z,84.19
2023-02-24T02:37:21.227Z,93.59
2023-02-24T02:38:21.822Z,94
2023-02-24T02:39:21.738Z,99.19
2023-02-24T02:40:22.187Z,94.09
2023-02-24T02:41:22.459Z,90.59
2023-02-24T02:42:22.075Z,90.09
2023-02-24T02:43:21.929Z,89.80
2023-02-24T02:44:21.654Z,89.40
2023-02-24T02:45:21.881Z,88.30
2023-02-24T02:46:22.638Z,93
2023-02-24T02:47:22.543Z,92.59
2023-02-24T02:48:21.427Z,81.80
2023-02-24T02:49:22.036Z,88.30
2023-02-24T02:50:22.565Z,84
2023-02-24T02:51:22.081Z,86.69
2023-02-24T02:52:21.262Z,77.90
2023-02-24T02:53:22.031Z,72.5
2023-02-24T02:54:22.262Z,76.40
2023-02-24T02:55:22.423Z,75.09
2023-02-24T02:56:21.982Z,68.5
2023-02-24T02:57:22.276Z,74.40
2023-02-24T02:58:22.274Z,72.69
2023-02-24T02:59:21.660Z,67.80
2023-02-24T03:00:23.525Z,63.40
2023-02-24T03:01:22.085Z,63
2023-02-24T03:02:21.548Z,60.40
2023-02-24T03:03:21.812Z,54.70
2023-02-24T03:04:21.416Z,61.09
2023-02-24T03:05:22.728Z,62.70
2023-02-24T03:06:21.766Z,59.5
2023-02-24T03:07:21.433Z,55.09
2023-02-24T03:08:21.808Z,53.90
2023-02-24T03:09:21.918Z,50.40
2023-02-24T03:10:22.497Z,52.70
2023-02-24T03:11:21.617Z,49.59
2023-02-24T03:12:21.277Z,45.40
2023-02-24T03:13:21.728Z,42.5
2023-02-24T03:14:21.820Z,40.09
2023-02-24T03:15:22.670Z,36.40
2023-02-24T03:16:21.987Z,34.09
2023-02-24T03:17:22.129Z,30.20
2023-02-24T03:18:21.780Z,30.29
2023-02-24T03:19:21.214Z,24.70
2023-02-24T03:20:22.047Z,27
2023-02-24T03:21:22.090Z,24.5
2023-02-24T03:22:21.581Z,25.5
2023-02-24T03:23:21.646Z,21.89
2023-02-24T03:24:20.971Z,23.60
2023-02-24T03:25:21.717Z,20.5
2023-02-24T03:26:21.378Z,21.89
2023-02-24T03:27:21.553Z,22.20
2023-02-24T03:28:21.221Z,19
2023-02-24T03:29:21.930Z,19.60
2023-02-24T03:30:21.957Z,21.70
2023-02-24T03:31:21.847Z,16.5
2023-02-24T03:32:21.309Z,21.60
2023-02-24T03:33:21.404Z,18.10
2023-02-24T03:34:21.850Z,19.10
2023-02-24T03:35:22.116Z,20
2023-02-24T03:36:21.172Z,18.89
2023-02-24T03:37:21.228Z,17.20
2023-02-24T03:38:21.754Z,16.89
2023-02-24T03:39:22.088Z,17.39
2023-02-24T03:40:22.259Z,18.10
2023-02-24T03:41:21.695Z,20
2023-02-24T03:42:21.776Z,23
2023-02-24T03:43:21.941Z,19
2023-02-24T03:44:21.351Z,22.89
2023-02-24T03:45:21.351Z,20.89
2023-02-24T03:46:21.155Z,22.70
2023-02-24T03:47:21.610Z,22.39
2023-02-24T03:48:20.995Z,21.29
2023-02-24T03:49:21.422Z,20.70
2023-02-24T03:50:21.569Z,20.89
2023-02-24T03:51:22.045Z,22.60
2023-02-24T03:52:21.133Z,20.79
2023-02-24T03:53:22.453Z,20.70
2023-02-24T03:54:21.406Z,17.39
2023-02-24T03:55:22.120Z,19.79
2023-02-24T03:56:21.586Z,17.5
2023-02-24T03:57:21.856Z,19.79
2023-02-24T03:58:21.907Z,20.89
2023-02-24T03:59:22.086Z,19.5
2023-02-24T04:01:22.576Z,18.10
2023-02-24T04:02:21.667Z,17.89
2023-02-24T04:03:21.917Z,21.60
2023-02-24T04:04:22.574Z,18.39
2023-02-24T04:05:21.495Z,17.89
2023-02-24T04:06:22.176Z,17.79
2023-02-24T04:07:21.904Z,17.60
2023-02-24T04:08:21.453Z,15.19
2023-02-24T04:10:22.648Z,15.10
2023-02-24T04:11:21.821Z,15.30
2023-02-24T04:12:22.586Z,13.30
2023-02-24T04:13:22.825Z,12.80
2023-02-24T04:14:22.436Z,16.70
2023-02-24T04:15:22.108Z,13.39
2023-02-24T04:16:22.369Z,13.5
2023-02-24T04:17:21.822Z,16.39
2023-02-24T04:18:22.492Z,14.5
2023-02-24T04:19:21.882Z,15.80
2023-02-24T04:20:22.806Z,16.89
2023-02-24T04:21:22.620Z,13.89
2023-02-24T04:22:21.700Z,14.89
2023-02-24T04:23:21.880Z,15.5
2023-02-24T04:24:21.982Z,13.89
2023-02-24T04:25:22.389Z,14.5
2023-02-24T04:26:21.965Z,14.69
2023-02-24T04:27:22.347Z,15.69
2023-02-24T04:28:21.953Z,13.69
2023-02-24T04:29:22.214Z,11.5
2023-02-24T04:30:21.587Z,13.5
2023-02-24T04:31:22.371Z,11.60
2023-02-24T04:32:22.468Z,13.60
2023-02-24T04:33:22.381Z,14.89
2023-02-24T04:34:22.244Z,15
2023-02-24T04:35:21.107Z,15.60
2023-02-24T04:36:21.604Z,15.30
2023-02-24T04:37:21.382Z,15.80
2023-02-24T04:38:21.209Z,14.19
2023-02-24T04:39:21.584Z,14.30
2023-02-24T04:40:22.041Z,16.39
2023-02-24T04:41:22.078Z,15.89
2023-02-24T04:42:21.170Z,14.5
2023-02-24T04:43:22.411Z,17.29
2023-02-24T04:44:21.359Z,19.5
2023-02-24T04:45:22.148Z,17.29
2023-02-24T04:46:22.273Z,16.29
2023-02-24T04:47:21.613Z,19
2023-02-24T04:48:21.775Z,15.19
2023-02-24T04:49:21.823Z,17.89
2023-02-24T04:50:22.398Z,18
2023-02-24T04:51:22.371Z,18.39
2023-02-24T04:52:21.410Z,19.20
2023-02-24T04:53:22.039Z,13.39
2023-02-24T04:54:21.749Z,14.69
2023-02-24T04:55:22.320Z,18
2023-02-24T04:56:21.337Z,14.69
2023-02-24T04:57:21.661Z,13.80
2023-02-24T04:58:21.891Z,13.69
2023-02-24T04:59:22.265Z,15.10
2023-02-24T05:00:23.001Z,16.70
2023-02-24T05:01:22.642Z,12.60
2023-02-24T05:02:21.977Z,16.29
2023-02-24T05:03:21.665Z,15.5
2023-02-24T05:04:22.319Z,19
2023-02-24T05:05:22.418Z,15.10
2023-02-24T05:06:22.603Z,14.69
2023-02-24T05:07:22.125Z,15.5
2023-02-24T05:08:21.565Z,15.69
2023-02-24T05:09:22.011Z,15.10
2023-02-24T05:10:21.997Z,14.10
2023-02-24T05:11:22.009Z,16.5
2023-02-24T05:12:22.203Z,12.5
2023-02-24T05:13:21.810Z,16.5
2023-02-24T05:14:21.945Z,17.10
2023-02-24T05:15:22.444Z,17.39
2023-02-24T05:16:22.498Z,14.80
2023-02-24T05:17:22.183Z,15.80
2023-02-24T05:18:22.759Z,17.89
2023-02-24T05:19:21.839Z,14.60
2023-02-24T05:20:22.652Z,14.69
2023-02-24T05:21:21.999Z,15.39
2023-02-24T05:22:21.860Z,13.30
2023-02-24T05:23:22.065Z,12.60
2023-02-24T05:24:21.963Z,14.69
2023-02-24T05:25:22.575Z,13.30
2023-02-24T05:26:22.305Z,14.60
2023-02-24T05:27:21.752Z,14.39
2023-02-24T05:28:22.246Z,16.89
2023-02-24T05:29:21.616Z,15.80
2023-02-24T05:30:22.528Z,16.10
2023-02-24T05:31:22.501Z,13.89
2023-02-24T05:32:22.094Z,14.60
2023-02-24T05:33:21.733Z,16.39
2023-02-24T05:34:21.502Z,13.30
2023-02-24T05:35:22.111Z,15.89
2023-02-24T05:36:22.171Z,14.10
2023-02-24T05:38:21.600Z,16.29
2023-02-24T05:39:21.606Z,15
2023-02-24T05:40:22.304Z,15.60
2023-02-24T05:41:22.014Z,14.60
2023-02-24T05:42:21.652Z,14.5
2023-02-24T05:43:21.696Z,16.20
2023-02-24T05:44:22.005Z,14.5
2023-02-24T05:45:22.037Z,16.60
2023-02-24T05:46:21.507Z,15.5
2023-02-24T05:47:22.017Z,18.20
2023-02-24T05:48:22.103Z,16.10
2023-02-24T05:49:21.825Z,15.30
2023-02-24T05:50:22.396Z,16.79
2023-02-24T05:51:23.070Z,15.69
2023-02-24T05:52:21.972Z,15
2023-02-24T05:53:21.896Z,14.89
2023-02-24T05:54:22.051Z,14.39
2023-02-24T05:55:22.115Z,12
2023-02-24T05:56:22.345Z,15.30
2023-02-24T05:57:22.057Z,14.5
2023-02-24T05:58:21.921Z,13.60
2023-02-24T05:59:21.238Z,12.19
2023-02-24T06:00:22.789Z,15
2023-02-24T06:01:22.832Z,16.29
2023-02-24T06:02:21.397Z,14.80
2023-02-24T06:03:22.310Z,14
2023-02-24T06:04:22.141Z,11.30
2023-02-24T06:05:22.582Z,15
2023-02-24T06:06:22.344Z,14.19
2023-02-24T06:07:22.453Z,14.39
2023-02-24T06:08:22.150Z,13.39
2023-02-24T06:09:22.346Z,13
2023-02-24T06:10:22.860Z,16.70
2023-02-24T06:11:23.640Z,13.80
2023-02-24T06:12:22.486Z,14
2023-02-24T06:13:24.144Z,14.69
2023-02-24T06:14:23.123Z,15.30
2023-02-24T06:15:21.973Z,12.5
2023-02-24T06:16:22.078Z,13
2023-02-24T06:17:21.923Z,17.89
2023-02-24T06:18:22.258Z,15.89
2023-02-24T06:19:22.308Z,16.5
2023-02-24T06:20:27.088Z,15.60
2023-02-24T06:21:22.679Z,13.5
2023-02-24T06:22:21.998Z,15.89
2023-02-24T06:23:21.922Z,15
2023-02-24T06:24:22.621Z,15.69
2023-02-24T06:25:22.763Z,16.10
2023-02-24T06:26:22.190Z,11.89
2023-02-24T06:27:21.920Z,13.19
2023-02-24T06:28:27.596Z,11.19
2023-02-24T06:29:22.167Z,14.69
2023-02-24T06:30:23.407Z,12
2023-02-24T06:31:22.167Z,13.60
2023-02-24T06:32:30.678Z,12.60
2023-02-24T06:33:22.117Z,14.19
2023-02-24T06:34:22.099Z,13
2023-02-24T06:35:22.512Z,15.39
2023-02-24T06:36:22.418Z,14
2023-02-24T06:37:21.903Z,13.80
2023-02-24T06:38:22.710Z,16.89
2023-02-24T06:39:22.219Z,14.69
2023-02-24T06:40:23.512Z,15.80
2023-02-24T06:41:22.723Z,18.29
2023-02-24T06:42:22.620Z,15.10
2023-02-24T06:43:22.154Z,17.10
2023-02-24T06:44:22.702Z,13.60
2023-02-24T06:45:23.049Z,13.80
2023-02-24T06:46:22.846Z,11.10
2023-02-24T06:47:22.598Z,12.60
2023-02-24T06:48:21.493Z,19.10
2023-02-24T06:49:22.516Z,19.5
2023-02-24T06:50:22.749Z,20.29
2023-02-24T06:51:22.708Z,26.29
2023-02-24T06:52:22.437Z,24.20
2023-02-24T06:53:22.365Z,22.89
2023-02-24T06:54:22.037Z,17.70
2023-02-24T06:55:22.072Z,17.39
2023-02-24T06:56:22.516Z,20.10
2023-02-24T06:57:22.203Z,17
2023-02-24T06:58:22.100Z,13.89
2023-02-24T06:59:21.822Z,16.20
2023-02-24T07:00:24.512Z,15.89
2023-02-24T07:01:24.009Z,13.89
2023-02-24T07:02:23.268Z,15.19
2023-02-24T07:03:22.937Z,14.60
2023-02-24T07:05:22.237Z,15.69
2023-02-24T07:06:22.937Z,14.89
2023-02-24T07:07:22.453Z,16.60
2023-02-24T07:08:22.141Z,15
2023-02-24T07:09:22.235Z,14.89
2023-02-24T07:10:22.564Z,18.10
2023-02-24T07:11:22.382Z,15
2023-02-24T07:12:22.499Z,15.5
2023-02-24T07:13:22.544Z,14
2023-02-24T07:14:22.721Z,15.60
2023-02-24T07:15:22.718Z,15.39
2023-02-24T07:17:22.162Z,11.80
2023-02-24T07:18:22.423Z,13.39
2023-02-24T07:19:22.139Z,14.39
2023-02-24T07:20:22.319Z,11.10
2023-02-24T07:21:22.898Z,14.5
2023-02-24T07:22:22.384Z,12.69
2023-02-24T07:23:22.557Z,11.30
2023-02-24T07:24:22.246Z,14.5
2023-02-24T07:25:22.670Z,15.60
2023-02-24T07:26:22.307Z,14.10
2023-02-24T07:27:23.157Z,12.80
2023-02-24T07:28:22.433Z,14.80
2023-02-24T07:29:21.877Z,14.89
2023-02-24T07:30:22.948Z,13.5
2023-02-24T07:31:22.850Z,14.19
2023-02-24T07:32:23.104Z,15.39
2023-02-24T07:33:22.309Z,14.89
2023-02-24T07:34:22.711Z,14.19
2023-02-24T07:35:22.817Z,15.19
2023-02-24T07:36:22.916Z,11.39
2023-02-24T07:37:21.526Z,13.80
2023-02-24T07:38:22.334Z,14.69
2023-02-24T07:39:22.522Z,17.39
2023-02-24T07:40:22.644Z,13.30
2023-02-24T07:41:23.190Z,16.10
2023-02-24T07:42:22.586Z,15.19
2023-02-24T07:43:22.519Z,13
2023-02-24T07:44:22.001Z,14
2023-02-24T07:45:23.196Z,15.10
2023-02-24T07:46:22.334Z,15.80
2023-02-24T07:47:21.839Z,14.60
2023-02-24T07:48:22.279Z,19.70
2023-02-24T07:49:22.624Z,19.60
2023-02-24T07:50:22.717Z,23.60
2023-02-24T07:51:21.675Z,25.70
2023-02-24T07:52:22.034Z,26.70
2023-02-24T07:53:21.686Z,22.60
2023-02-24T07:54:22.495Z,19.79
2023-02-24T07:55:21.987Z,20.60
2023-02-24T07:56:22.019Z,17.20
2023-02-24T07:57:21.889Z,22.29
2023-02-24T07:58:22.499Z,19.20
2023-02-24T07:59:22.095Z,17.89
2023-02-24T08:00:23.737Z,15.30
2023-02-24T08:01:22.820Z,15.80
2023-02-24T08:02:23.053Z,15.5
2023-02-24T08:03:22.473Z,17
2023-02-24T08:04:22.760Z,19.70
2023-02-24T08:05:22.450Z,16
2023-02-24T08:06:22.303Z,18.60
2023-02-24T08:07:22.424Z,18
2023-02-24T08:08:22.048Z,18.20
2023-02-24T08:09:22.264Z,14.5
2023-02-24T08:10:22.574Z,19.60
2023-02-24T08:11:22.181Z,15.69
2023-02-24T08:12:22.288Z,18
2023-02-24T08:13:22.563Z,18.10
2023-02-24T08:14:22.692Z,17.29
2023-02-24T08:15:22.990Z,20.79
2023-02-24T08:16:22.747Z,20.29
2023-02-24T08:17:22.401Z,18.20
2023-02-24T08:18:22.695Z,17.10
2023-02-24T08:19:22.283Z,18.70
2023-02-24T08:20:22.127Z,19.60
2023-02-24T08:21:23.662Z,17.5
2023-02-24T08:22:22.584Z,16.39
2023-02-24T08:23:22.042Z,20
2023-02-24T08:24:24.873Z,19.39
2023-02-24T08:25:22.642Z,18.20
2023-02-24T08:26:22.205Z,19.70
2023-02-24T08:27:23.218Z,20.10
2023-02-24T08:28:22.541Z,19.20
2023-02-24T08:29:21.723Z,16.5
2023-02-24T08:30:22.876Z,18.79
2023-02-24T08:31:22.645Z,20.70
2023-02-24T08:33:22.741Z,19.60
2023-02-24T08:34:22.845Z,19.89
2023-02-24T08:35:22.357Z,21.89
2023-02-24T08:36:22.368Z,22.10
2023-02-24T08:37:22.321Z,19.60
2023-02-24T08:38:23.683Z,20.10
2023-02-24T08:39:22.365Z,22.79
2023-02-24T08:40:22.755Z,22.39
2023-02-24T08:41:22.526Z,18
2023-02-24T08:42:22.833Z,18.20
2023-02-24T08:43:22.763Z,20.60
2023-02-24T08:44:22.414Z,19.39
2023-02-24T08:45:23.348Z,17.39
2023-02-24T08:46:22.977Z,18.60
2023-02-24T08:47:28.356Z,19.5
2023-02-24T08:48:22.971Z,19.29
2023-02-24T08:49:22.946Z,19.79
2023-02-24T08:50:22.795Z,18.29
2023-02-24T08:51:22.516Z,22.79
2023-02-24T08:52:21.874Z,19.20
2023-02-24T08:53:27.375Z,21.89
2023-02-24T08:54:23.095Z,20.89
2023-02-24T08:55:22.859Z,18.5
2023-02-24T08:56:23.027Z,19.5
2023-02-24T08:57:22.403Z,23.70
2023-02-24T08:58:21.852Z,18.20
2023-02-24T08:59:22.778Z,22.29
2023-02-24T09:00:24.331Z,24
2023-02-24T09:01:30.759Z,21.10
2023-02-24T09:03:22.580Z,20.5
2023-02-24T09:04:22.808Z,19.89
2023-02-24T09:05:22.954Z,18.79
2023-02-24T09:06:23.418Z,22.79
2023-02-24T09:07:22.629Z,22.39
2023-02-24T09:08:23.051Z,20
2023-02-24T09:09:22.865Z,20.20
2023-02-24T09:10:23.574Z,20
2023-02-24T09:11:23.657Z,22.20
2023-02-24T09:12:22.704Z,19.5
2023-02-24T09:13:23.462Z,18.89
2023-02-24T09:14:28.213Z,21.39
2023-02-24T09:15:23.561Z,17.89
2023-02-24T09:16:22.896Z,22.79
2023-02-24T09:17:23.306Z,21.10
2023-02-24T09:18:23.343Z,20.20
2023-02-24T09:19:23.164Z,17.29
2023-02-24T09:20:22.941Z,16.89
2023-02-24T09:21:23.054Z,19.39
2023-02-24T09:22:22.130Z,17.10
2023-02-24T09:23:22.927Z,18.5
2023-02-24T09:24:23.163Z,15.30
2023-02-24T09:25:23.460Z,17.10
2023-02-24T09:26:23.330Z,18.29
2023-02-24T09:27:22.858Z,19.29
2023-02-24T09:28:22.787Z,18
2023-02-24T09:29:23.141Z,16.5
2023-02-24T09:30:23.334Z,17.10
2023-02-24T09:31:23.446Z,18.70
2023-02-24T09:32:23.070Z,17.60
2023-02-24T09:33:23.096Z,17.29
2023-02-24T09:34:22.044Z,19.29
2023-02-24T09:35:23.644Z,19.20
2023-02-24T09:36:23.401Z,16.39
2023-02-24T09:37:23.208Z,14.89
2023-02-24T09:38:23.035Z,16.70
2023-02-24T09:39:23.083Z,13.80
2023-02-24T09:40:23.121Z,17.20
2023-02-24T09:41:22.873Z,19
2023-02-24T09:42:22.925Z,15.5
2023-02-24T09:43:23.157Z,14.60
2023-02-24T09:44:23.194Z,15.19
2023-02-24T09:45:23.500Z,16
2023-02-24T09:46:22.855Z,14.60
2023-02-24T09:47:22.773Z,13
2023-02-24T09:48:23.797Z,15.89
2023-02-24T09:49:22.727Z,16.29
2023-02-24T09:50:48.322Z,14.89
2023-02-24T09:51:29.209Z,14.69
2023-02-24T09:52:22.636Z,13.39
2023-02-24T09:53:22.826Z,13.5
2023-02-24T09:54:22.691Z,13.89
2023-02-24T09:55:23.336Z,15
2023-02-24T09:56:23.302Z,13.69
2023-02-24T09:57:22.086Z,14.89
2023-02-24T09:58:26.974Z,12.89
2023-02-24T09:59:22.357Z,13.60
2023-02-24T10:00:23.617Z,11.80
2023-02-24T10:01:23.366Z,14.30
2023-02-24T10:02:22.760Z,12.19
2023-02-24T10:03:22.339Z,11.5
2023-02-24T10:04:22.014Z,9.899
2023-02-24T10:05:23.116Z,12.60
2023-02-24T10:06:22.905Z,13.30
2023-02-24T10:07:22.532Z,12.5
2023-02-24T10:08:22.324Z,12.30
2023-02-24T10:09:22.785Z,12.69
2023-02-24T10:10:23.365Z,10.80
2023-02-24T10:11:22.516Z,11.80
2023-02-24T10:12:22.543Z,12.10
2023-02-24T10:13:21.792Z,12
2023-02-24T10:14:25.600Z,13.30
2023-02-24T10:15:23.207Z,11.69
2023-02-24T10:16:22.449Z,11.30
2023-02-24T10:17:22.744Z,13.10
2023-02-24T10:18:23.209Z,11.89
2023-02-24T10:19:22.768Z,15.60
2023-02-24T10:20:24.382Z,12.10
2023-02-24T10:21:24.064Z,11.5
2023-02-24T10:22:23.699Z,10.39
2023-02-24T10:23:23.200Z,10.5
2023-02-24T10:24:22.732Z,9.5
2023-02-24T10:25:23.076Z,10.39
2023-02-24T10:26:23.422Z,10.89
2023-02-24T10:27:22.515Z,9.100
2023-02-24T10:28:23.259Z,8.300
2023-02-24T10:29:22.158Z,8.800
2023-02-24T10:30:22.866Z,11.30
2023-02-24T10:31:23.843Z,8.600
2023-02-24T10:32:23.017Z,12.80
2023-02-24T10:33:23.397Z,10.19
2023-02-24T10:34:24.095Z,12.19
2023-02-24T10:35:23.134Z,10.10
2023-02-24T10:36:22.600Z,8.699
2023-02-24T10:37:28.606Z,9.899
2023-02-24T10:38:22.475Z,10.69
2023-02-24T10:39:22.496Z,9.800
2023-02-24T10:40:23.309Z,9.399
2023-02-24T10:41:22.783Z,9.899
2023-02-24T10:42:23.167Z,10.19
2023-02-24T10:43:22.498Z,9
2023-02-24T10:44:22.611Z,12.80
2023-02-24T10:45:23.489Z,10.30
2023-02-24T10:47:22.588Z,10.39
2023-02-24T10:48:32.323Z,9.399
2023-02-24T10:49:23.286Z,11.80
2023-02-24T10:51:22.773Z,13.60
2023-02-24T10:52:23.377Z,10.69
2023-02-24T10:53:23.077Z,12.89
2023-02-24T10:54:22.894Z,11
2023-02-24T10:55:22.925Z,11.69
2023-02-24T10:57:22.842Z,12.10
2023-02-24T10:58:23.700Z,10.89
2023-02-24T11:00:25.591Z,11.19
2023-02-24T11:01:24.049Z,13.10
2023-02-24T11:02:23.040Z,11
2023-02-24T11:03:32.499Z,12.39
2023-02-24T11:04:24.475Z,11.5
2023-02-24T11:05:24.639Z,10
2023-02-24T11:06:25.203Z,11.30
2023-02-24T11:07:24.387Z,10.19
2023-02-24T11:09:24.168Z,13.10
2023-02-24T11:10:23.074Z,10
2023-02-24T11:12:28.188Z,12
2023-02-24T11:13:22.870Z,10.80
2023-02-24T11:14:22.604Z,9.5
2023-02-24T11:15:22.813Z,9.899
2023-02-24T11:16:27.861Z,10.80
2023-02-24T11:17:22.989Z,10.89
2023-02-24T11:18:28.551Z,10.39
2023-02-24T11:19:22.581Z,10.5
2023-02-24T11:20:42.341Z,11.19
2023-02-24T11:21:23.462Z,11.39
2023-02-24T11:22:28.096Z,11.19
2023-02-24T11:23:23.251Z,10.69
2023-02-24T11:24:31.309Z,9.300
2023-02-24T11:25:24.116Z,10.10
2023-02-24T11:26:22.663Z,9
2023-02-24T11:27:23.184Z,11.10
2023-02-24T11:28:23.340Z,12.19
2023-02-24T11:29:23.050Z,9.699
2023-02-24T11:30:31.605Z,10.39
2023-02-24T11:31:23.518Z,8.899
2023-02-24T11:32:22.893Z,8.600
2023-02-24T11:33:22.823Z,11.39
2023-02-24T11:34:23.325Z,10.80
2023-02-24T11:35:24.688Z,11.60
2023-02-24T11:36:22.306Z,9.199
2023-02-24T11:37:26.428Z,13.30
2023-02-24T11:38:23.087Z,8.800
2023-02-24T11:39:23.582Z,10.30
2023-02-24T11:40:24.230Z,12
2023-02-24T11:41:23.895Z,13.39
2023-02-24T11:42:23.389Z,10.69
2023-02-24T11:43:23.044Z,10.10
2023-02-24T11:44:23.323Z,9.100
2023-02-24T11:45:23.886Z,9.899
2023-02-24T11:46:22.843Z,10.69
2023-02-24T11:47:23.095Z,11
2023-02-24T11:48:22.625Z,11.10
2023-02-24T11:49:22.838Z,10.5
2023-02-24T11:50:23.361Z,9.100
2023-02-24T11:51:23.056Z,10.19
2023-02-24T11:52:41.810Z,9.800
2023-02-24T11:53:22.902Z,10.80
2023-02-24T11:54:22.584Z,10.69
2023-02-24T11:56:23.819Z,10.89
2023-02-24T11:57:23.085Z,10.5
2023-02-24T11:58:23.193Z,8.199
2023-02-24T11:59:23.078Z,11.80
2023-02-24T12:00:24.614Z,9.300
2023-02-24T12:01:24.142Z,8
2023-02-24T12:02:23.405Z,9.5
2023-02-24T12:03:23.128Z,10
2023-02-24T12:04:23.423Z,8.5
2023-02-24T12:05:23.469Z,9.800
2023-02-24T12:06:23.721Z,10.10
2023-02-24T12:07:23.389Z,8.100
2023-02-24T12:08:22.636Z,10.30
2023-02-24T12:09:23.238Z,10.10
2023-02-24T12:10:23.348Z,8.399
2023-02-24T12:11:23.873Z,9.199
2023-02-24T12:12:22.615Z,11.39
2023-02-24T12:13:22.486Z,8.800
2023-02-24T12:14:23.289Z,10.89
2023-02-24T12:15:24.374Z,8.899
2023-02-24T12:16:23.693Z,9
2023-02-24T12:17:23.436Z,9.300
2023-02-24T12:18:23.385Z,9.800
2023-02-24T12:19:23.853Z,8.699
2023-02-24T12:20:23.566Z,10.89
2023-02-24T12:21:23.645Z,9.600
2023-02-24T12:22:23.139Z,9.399
2023-02-24T12:23:22.493Z,9.5
2023-02-24T12:24:23.004Z,9.300
2023-02-24T12:25:23.142Z,9
2023-02-24T12:26:23.080Z,9.699
2023-02-24T12:27:22.947Z,9.5
2023-02-24T12:28:23.787Z,7.199
2023-02-24T12:29:23.607Z,7.900
2023-02-24T12:30:23.761Z,9.300
2023-02-24T12:31:24.128Z,8.100
2023-02-24T12:32:24.239Z,8.899
2023-02-24T12:33:25.349Z,7
2023-02-24T12:34:23.742Z,9.399
2023-02-24T12:35:24.152Z,8.800
2023-02-24T12:36:24.540Z,9.300
2023-02-24T12:37:23.623Z,8.399
2023-02-24T12:38:23.455Z,7
2023-02-24T12:39:23.092Z,8.100
2023-02-24T12:40:23.419Z,10
2023-02-24T12:41:23.701Z,8.399
2023-02-24T12:42:22.692Z,9.800
2023-02-24T12:43:23.888Z,10.69
2023-02-24T12:44:23.111Z,7.800
2023-02-24T12:45:22.968Z,8.899
2023-02-24T12:46:22.543Z,7.800
2023-02-24T12:47:23.141Z,7.400
2023-02-24T12:48:22.583Z,9.399
2023-02-24T12:49:22.860Z,8.600
2023-02-24T12:50:23.167Z,7
2023-02-24T12:51:23.166Z,7.699
2023-02-24T12:52:22.380Z,7.400
2023-02-24T12:53:23.243Z,7.199
2023-02-24T12:54:22.094Z,9.199
2023-02-24T12:55:23.592Z,9.800
2023-02-24T12:56:22.465Z,7.400
2023-02-24T12:57:23.205Z,9.399
2023-02-24T12:58:23.316Z,8.699
2023-02-24T12:59:22.924Z,7.199
2023-02-24T13:00:24.115Z,8.699
2023-02-24T13:01:23.380Z,8.199
2023-02-24T13:02:22.805Z,7.699
2023-02-24T13:03:23.051Z,6.900
2023-02-24T13:04:22.938Z,9.399
2023-02-24T13:05:23.263Z,8.5
2023-02-24T13:06:23.475Z,13.30
2023-02-24T13:07:23.114Z,9.300
2023-02-24T13:08:23.814Z,8.600
2023-02-24T13:10:22.881Z,10.19
2023-02-24T13:11:23.301Z,8.699
2023-02-24T13:12:23.034Z,7.900
2023-02-24T13:13:22.660Z,8.100
2023-02-24T13:14:23.177Z,7.699
2023-02-24T13:15:23.760Z,7.900
2023-02-24T13:16:23.817Z,7.400
2023-02-24T13:18:22.779Z,7.900
2023-02-24T13:19:23.867Z,6.800
2023-02-24T13:20:24.060Z,6.900
2023-02-24T13:22:23.366Z,7.800
2023-02-24T13:23:23.056Z,7.400
2023-02-24T13:24:22.999Z,8.800
2023-02-24T13:25:22.967Z,8.199
2023-02-24T13:26:23.041Z,7.699